createdAt,value
2018-08-18T00:00:07.824Z,17.20
2018-08-18T00:02:37.965Z,17.10
2018-08-18T00:05:08.228Z,17.10
2018-08-18T00:07:36.664Z,17.10
2018-08-18T00:10:07.392Z,17.00
2018-08-18T00:12:35.831Z,17.10
2018-08-18T00:15:05.211Z,17.20
2018-08-18T00:17:33.765Z,17.20
2018-08-18T00:20:02.255Z,17.30
2018-08-18T00:22:31.020Z,17.20
2018-08-18T00:24:59.788Z,17.20
2018-08-18T00:27:28.508Z,17.20
2018-08-18T00:30:28.755Z,17.20
2018-08-18T00:32:57.434Z,17.10
2018-08-18T00:35:25.896Z,17.20
2018-08-18T00:37:54.366Z,17.10
2018-08-18T00:40:22.792Z,17.10
2018-08-18T00:42:51.263Z,17.10
2018-08-18T00:45:19.824Z,16.90
2018-08-18T00:47:48.500Z,16.80
2018-08-18T00:50:35.602Z,16.60
2018-08-18T00:53:05.104Z,16.60
2018-08-18T00:55:33.802Z,16.60
2018-08-18T00:58:02.320Z,16.50
2018-08-18T01:00:30.750Z,16.40
2018-08-18T01:02:59.812Z,16.40
2018-08-18T01:05:28.308Z,16.50
2018-08-18T01:07:56.787Z,16.40
2018-08-18T01:10:25.256Z,16.40
2018-08-18T01:12:53.750Z,16.40
2018-08-18T01:15:26.414Z,16.30
2018-08-18T01:17:55.250Z,16.20
2018-08-18T01:20:23.712Z,16.00
2018-08-18T01:22:56.308Z,16.00
2018-08-18T01:25:25.312Z,15.90
2018-08-18T01:27:54.166Z,15.90
2018-08-18T01:30:22.582Z,16.00
2018-08-18T01:32:51.012Z,16.10
2018-08-18T01:35:21.318Z,16.20
2018-08-18T01:37:49.734Z,16.30
2018-08-18T01:40:18.128Z,16.30
2018-08-18T01:42:46.582Z,16.30
2018-08-18T01:45:15.040Z,16.30
2018-08-18T01:47:43.448Z,16.30
2018-08-18T01:50:17.323Z,16.20
2018-08-18T01:52:45.716Z,16.20
2018-08-18T01:55:15.033Z,16.20
2018-08-18T01:57:43.508Z,16.20
2018-08-18T02:00:27.980Z,16.10
2018-08-18T02:02:56.372Z,16.10
2018-08-18T02:05:26.850Z,15.90
2018-08-18T02:07:55.766Z,15.90
2018-08-18T02:10:24.196Z,15.80
2018-08-18T02:13:03.876Z,15.70
2018-08-18T02:15:32.590Z,15.60
2018-08-18T02:18:00.948Z,15.70
2018-08-18T02:20:29.572Z,15.70
2018-08-18T02:22:58.116Z,15.70
2018-08-18T02:25:26.538Z,15.60
2018-08-18T02:27:54.994Z,15.60
2018-08-18T02:30:24.162Z,15.60
2018-08-18T02:32:52.577Z,15.50
2018-08-18T02:35:22.580Z,15.50
2018-08-18T02:37:50.993Z,15.60
2018-08-18T02:40:19.469Z,15.70
2018-08-18T02:42:47.931Z,15.60
2018-08-18T02:45:16.777Z,15.60
2018-08-18T02:47:45.377Z,15.60
2018-08-18T02:50:14.484Z,15.60
2018-08-18T02:52:42.922Z,15.60
2018-08-18T02:55:12.126Z,15.60
2018-08-18T02:57:41.746Z,15.60
2018-08-18T03:00:17.456Z,15.60
2018-08-18T03:02:45.928Z,15.60
2018-08-18T03:05:14.606Z,15.60
2018-08-18T03:07:45.992Z,15.60
2018-08-18T03:10:30.688Z,15.50
2018-08-18T03:13:00.544Z,15.40
2018-08-18T03:16:08.384Z,15.40
2018-08-18T03:18:42.818Z,15.40
2018-08-18T03:21:11.344Z,15.40
2018-08-18T03:23:49.855Z,15.30
2018-08-18T03:26:20.979Z,15.20
2018-08-18T03:28:50.859Z,15.20
2018-08-18T03:31:19.581Z,15.10
2018-08-18T03:33:48.202Z,15.00
2018-08-18T03:36:33.533Z,14.90
2018-08-18T03:39:01.965Z,14.70
2018-08-18T03:41:30.802Z,14.50
2018-08-18T03:43:59.426Z,14.30
2018-08-18T03:46:27.976Z,14.20
2018-08-18T03:48:56.403Z,14.10
2018-08-18T03:51:30.739Z,14.00
2018-08-18T03:53:59.679Z,14.00
2018-08-18T03:56:28.120Z,14.10
2018-08-18T03:58:57.607Z,14.20
2018-08-18T04:01:51.029Z,14.20
2018-08-18T04:04:20.517Z,14.20
2018-08-18T04:06:50.399Z,14.30
2018-08-18T04:09:20.963Z,14.30
2018-08-18T04:11:49.614Z,14.40
2018-08-18T04:14:20.120Z,14.40
2018-08-18T04:16:49.753Z,14.30
2018-08-18T04:19:19.465Z,14.30
2018-08-18T04:21:48.798Z,14.30
2018-08-18T04:24:17.297Z,14.20
2018-08-18T04:26:50.417Z,14.20
2018-08-18T04:29:20.964Z,14.00
2018-08-18T04:31:49.367Z,13.90
2018-08-18T04:34:17.788Z,14.00
2018-08-18T04:36:46.205Z,14.20
2018-08-18T04:39:15.635Z,14.40
2018-08-18T04:41:44.095Z,14.50
2018-08-18T04:44:12.495Z,14.40
2018-08-18T04:46:40.984Z,14.40
2018-08-18T04:49:09.597Z,14.40
2018-08-18T04:51:38.059Z,14.40
2018-08-18T04:54:06.896Z,14.40
2018-08-18T04:56:35.370Z,14.50
2018-08-18T04:59:04.041Z,14.70
2018-08-18T05:01:32.584Z,14.90
2018-08-18T05:04:04.803Z,15.10
2018-08-18T05:06:33.991Z,15.30
2018-08-18T05:09:04.782Z,15.30
2018-08-18T05:11:33.226Z,15.40
2018-08-18T05:14:01.624Z,15.60
2018-08-18T05:16:30.048Z,15.70
2018-08-18T05:18:58.460Z,15.80
2018-08-18T05:21:26.848Z,15.90
2018-08-18T05:23:55.351Z,16.10
2018-08-18T05:26:23.773Z,16.20
2018-08-18T05:28:52.244Z,16.30
2018-08-18T05:31:21.665Z,16.40
2018-08-18T05:33:50.289Z,16.70
2018-08-18T05:36:18.819Z,17.00
2018-08-18T05:38:47.228Z,17.20
2018-08-18T05:41:15.655Z,17.50
2018-08-18T05:43:44.173Z,17.70
2018-08-18T05:46:12.563Z,17.90
2018-08-18T05:48:41.007Z,18.20
2018-08-18T05:51:09.427Z,18.40
2018-08-18T05:53:37.851Z,18.90
2018-08-18T05:56:06.383Z,19.20
2018-08-18T05:58:50.100Z,19.30
2018-08-18T06:01:37.371Z,19.50
2018-08-18T06:04:11.627Z,19.60
2018-08-18T06:06:40.829Z,19.50
2018-08-18T06:09:11.279Z,19.70
2018-08-18T06:11:39.707Z,20.00
2018-08-18T06:14:09.235Z,20.50
2018-08-18T06:16:37.679Z,20.50
2018-08-18T06:19:06.350Z,20.80
2018-08-18T06:21:34.859Z,21.00
2018-08-18T06:24:03.363Z,21.10
2018-08-18T06:26:31.895Z,21.50
2018-08-18T06:29:00.309Z,21.70
2018-08-18T06:31:28.763Z,21.90
2018-08-18T06:33:57.244Z,21.90
2018-08-18T06:36:25.771Z,21.90
2018-08-18T06:38:54.199Z,22.20
2018-08-18T06:41:22.673Z,22.30
2018-08-18T06:43:51.108Z,22.50
2018-08-18T06:46:19.583Z,22.40
2018-08-18T06:48:48.046Z,22.50
2018-08-18T06:51:16.491Z,22.90
2018-08-18T06:53:47.107Z,23.20
2018-08-18T06:56:15.664Z,22.90
2018-08-18T06:58:44.063Z,23.20
2018-08-18T07:01:12.646Z,23.40
2018-08-18T07:03:44.479Z,23.50
2018-08-18T07:06:13.992Z,23.60
2018-08-18T07:08:47.727Z,23.90
2018-08-18T07:11:16.641Z,24.30
2018-08-18T07:13:45.783Z,24.50
2018-08-18T07:16:14.303Z,24.70
2018-08-18T07:18:42.736Z,24.80
2018-08-18T07:21:11.309Z,24.90
2018-08-18T07:23:39.969Z,25.20
2018-08-18T07:26:08.449Z,25.50
2018-08-18T07:28:36.925Z,25.50
2018-08-18T07:31:05.339Z,25.70
2018-08-18T07:33:33.758Z,26.00
2018-08-18T07:36:02.378Z,26.00
2018-08-18T07:38:30.980Z,26.10
2018-08-18T07:40:59.488Z,26.40
2018-08-18T07:43:30.433Z,26.60
2018-08-18T07:46:00.405Z,26.80
2018-08-18T07:48:28.813Z,26.90
2018-08-18T07:50:57.240Z,26.60
2018-08-18T07:53:25.773Z,27.00
2018-08-18T07:55:54.169Z,27.30
2018-08-18T07:58:24.103Z,27.30
2018-08-18T08:00:52.527Z,27.40
2018-08-18T08:03:21.527Z,27.20
2018-08-18T08:05:50.126Z,27.20
2018-08-18T08:08:18.503Z,27.30
2018-08-18T08:10:46.901Z,27.50
2018-08-18T08:13:15.843Z,27.60
2018-08-18T08:15:44.268Z,27.70
2018-08-18T08:18:14.398Z,27.60
2018-08-18T08:20:42.898Z,27.80
2018-08-18T08:23:11.292Z,28.00
2018-08-18T08:25:39.752Z,28.10
2018-08-18T08:28:08.263Z,28.10
2018-08-18T08:30:36.884Z,28.30
2018-08-18T08:33:05.344Z,28.70
2018-08-18T08:35:36.968Z,28.70
2018-08-18T08:38:05.539Z,28.90
2018-08-18T08:40:34.079Z,28.70
2018-08-18T08:43:02.671Z,28.90
2018-08-18T08:45:31.166Z,29.10
2018-08-18T08:47:59.583Z,29.00
2018-08-18T08:50:28.006Z,28.90
2018-08-18T08:52:57.270Z,29.30
2018-08-18T08:55:27.234Z,29.60
2018-08-18T08:57:55.752Z,29.60
2018-08-18T09:00:24.163Z,29.50
2018-08-18T09:02:52.617Z,29.50
2018-08-18T09:05:21.658Z,29.60
2018-08-18T09:07:50.097Z,29.30
2018-08-18T09:10:18.746Z,29.50
2018-08-18T09:12:47.263Z,29.50
2018-08-18T09:15:16.579Z,28.90
2018-08-18T09:17:45.039Z,28.80
2018-08-18T09:20:16.145Z,28.90
2018-08-18T09:22:52.665Z,28.80
2018-08-18T09:25:21.080Z,29.10
2018-08-18T09:27:57.048Z,29.20
2018-08-18T09:30:27.071Z,29.10
2018-08-18T09:32:57.668Z,28.60
2018-08-18T09:35:26.204Z,28.50
2018-08-18T09:37:58.311Z,28.60
2018-08-18T09:40:28.914Z,28.20
2018-08-18T09:42:57.407Z,28.40
2018-08-18T09:45:25.889Z,29.10
2018-08-18T09:47:54.314Z,29.40
2018-08-18T09:50:22.792Z,29.50
2018-08-18T09:52:51.215Z,29.20
2018-08-18T09:55:19.703Z,29.10
2018-08-18T09:57:48.124Z,29.60
2018-08-18T10:00:17.520Z,29.60
2018-08-18T10:02:45.943Z,29.40
2018-08-18T10:05:14.754Z,29.60
2018-08-18T10:07:43.173Z,29.10
2018-08-18T10:10:13.172Z,28.90
2018-08-18T10:12:41.561Z,29.30
2018-08-18T10:15:10.080Z,29.60
2018-08-18T10:17:38.460Z,29.70
2018-08-18T10:20:07.259Z,29.80
2018-08-18T10:22:35.644Z,29.60
2018-08-18T10:25:04.519Z,29.40
2018-08-18T10:27:32.939Z,29.40
2018-08-18T10:30:01.362Z,29.50
2018-08-18T10:32:29.804Z,29.60
2018-08-18T10:34:58.504Z,29.70
2018-08-18T10:37:26.945Z,29.10
2018-08-18T10:40:02.580Z,29.30
2018-08-18T10:42:31.889Z,29.30
2018-08-18T10:45:04.054Z,29.30
2018-08-18T10:47:32.479Z,29.40
2018-08-18T10:50:12.272Z,29.30
2018-08-18T10:52:51.891Z,29.40
2018-08-18T10:55:20.359Z,29.20
2018-08-18T10:58:03.508Z,29.40
2018-08-18T11:00:32.771Z,29.60
2018-08-18T11:03:02.611Z,29.20
2018-08-18T11:05:31.292Z,29.40
2018-08-18T11:08:06.130Z,29.50
2018-08-18T11:10:37.738Z,29.60
2018-08-18T11:13:06.246Z,29.50
2018-08-18T11:15:34.752Z,29.00
2018-08-18T11:18:03.157Z,28.80
2018-08-18T11:20:33.041Z,29.00
2018-08-18T11:23:10.227Z,28.90
2018-08-18T11:25:43.059Z,29.20
2018-08-18T11:28:12.538Z,29.30
2018-08-18T11:30:41.165Z,28.90
2018-08-18T11:33:09.863Z,28.70
2018-08-18T11:35:38.659Z,28.80
2018-08-18T11:38:16.131Z,28.90
2018-08-18T11:40:45.055Z,28.60
2018-08-18T11:43:16.659Z,28.60
2018-08-18T11:45:45.763Z,28.40
2018-08-18T11:48:20.604Z,28.20
2018-08-18T11:50:50.509Z,28.20
2018-08-18T11:53:18.973Z,28.30
2018-08-18T11:55:47.427Z,28.30
2018-08-18T11:58:18.925Z,28.20
2018-08-18T12:00:55.926Z,27.80
2018-08-18T12:03:27.080Z,27.70
2018-08-18T12:05:56.795Z,27.60
2018-08-18T12:08:26.467Z,27.70
2018-08-18T12:10:56.563Z,27.80
2018-08-18T12:13:31.358Z,27.80
2018-08-18T12:16:10.651Z,28.00
2018-08-18T12:18:40.643Z,28.00
2018-08-18T12:21:09.502Z,28.00
2018-08-18T12:23:39.542Z,28.00
2018-08-18T12:26:10.836Z,27.90
2018-08-18T12:28:44.732Z,27.90
2018-08-18T12:31:15.088Z,27.80
2018-08-18T12:33:43.583Z,27.80
2018-08-18T12:36:12.059Z,27.50
2018-08-18T12:38:42.919Z,27.30
2018-08-18T12:41:11.454Z,27.00
2018-08-18T12:43:42.268Z,26.80
2018-08-18T12:46:12.585Z,26.40
2018-08-18T12:48:42.317Z,26.40
2018-08-18T12:51:11.920Z,26.50
2018-08-18T12:53:45.804Z,26.50
2018-08-18T12:56:15.558Z,26.50
2018-08-18T12:58:44.050Z,26.50
2018-08-18T13:01:12.844Z,26.50
2018-08-18T13:03:41.240Z,26.50
2018-08-18T13:06:10.208Z,26.60
2018-08-18T13:08:38.696Z,26.60
2018-08-18T13:11:08.348Z,26.60
2018-08-18T13:13:36.809Z,26.50
2018-08-18T13:16:05.239Z,26.60
2018-08-18T13:18:34.245Z,26.40
2018-08-18T13:21:02.672Z,26.40
2018-08-18T13:23:31.049Z,26.30
2018-08-18T13:25:59.457Z,26.30
2018-08-18T13:28:28.004Z,26.30
2018-08-18T13:30:56.498Z,26.40
2018-08-18T13:33:25.693Z,26.50
2018-08-18T13:35:54.089Z,26.50
2018-08-18T13:38:28.798Z,26.50
2018-08-18T13:40:57.401Z,26.50
2018-08-18T13:43:41.251Z,26.60
2018-08-18T13:46:11.378Z,26.60
2018-08-18T13:48:43.471Z,26.60
2018-08-18T13:51:12.030Z,26.60
2018-08-18T13:53:49.900Z,26.60
2018-08-18T13:56:18.459Z,26.60
2018-08-18T13:58:49.231Z,26.70
2018-08-18T14:01:33.212Z,26.60
2018-08-18T14:04:02.614Z,26.50
2018-08-18T14:06:37.366Z,26.50
2018-08-18T14:09:06.684Z,26.50
2018-08-18T14:11:35.468Z,26.20
2018-08-18T14:14:03.960Z,26.20
2018-08-18T14:16:32.624Z,26.20
2018-08-18T14:19:01.468Z,26.20
2018-08-18T14:21:29.988Z,26.30
2018-08-18T14:23:58.524Z,26.30
2018-08-18T14:26:26.964Z,26.30
2018-08-18T14:28:55.368Z,26.40
2018-08-18T14:31:23.805Z,26.40
2018-08-18T14:33:52.334Z,26.40
2018-08-18T14:36:22.524Z,26.50
2018-08-18T14:38:51.825Z,26.50
2018-08-18T14:41:52.348Z,26.50
2018-08-18T14:44:20.743Z,26.50
2018-08-18T14:46:49.252Z,26.50
2018-08-18T14:49:17.937Z,26.40
2018-08-18T14:51:46.467Z,26.30
2018-08-18T14:54:16.452Z,26.40
2018-08-18T14:56:44.768Z,26.50
2018-08-18T14:59:13.224Z,26.50
2018-08-18T15:01:41.946Z,26.50
2018-08-18T15:04:10.534Z,26.70
2018-08-18T15:06:39.245Z,26.70
2018-08-18T15:09:07.615Z,26.70
2018-08-18T15:11:36.072Z,26.70
2018-08-18T15:14:04.474Z,26.70
2018-08-18T15:16:32.955Z,26.60
2018-08-18T15:19:01.381Z,26.70
2018-08-18T15:21:29.812Z,26.60
2018-08-18T15:23:58.241Z,26.60
2018-08-18T15:26:26.690Z,26.40
2018-08-18T15:28:55.248Z,26.30
2018-08-18T15:31:23.651Z,26.30
2018-08-18T15:33:53.624Z,26.30
2018-08-18T15:36:32.143Z,26.30
2018-08-18T15:39:00.671Z,26.20
2018-08-18T15:41:29.048Z,26.20
2018-08-18T15:43:57.470Z,26.20
2018-08-18T15:46:25.922Z,26.20
2018-08-18T15:48:54.304Z,26.20
2018-08-18T15:51:22.784Z,26.20
2018-08-18T15:53:54.860Z,26.10
2018-08-18T15:56:24.044Z,26.10
2018-08-18T15:58:53.377Z,26.10
2018-08-18T16:01:23.102Z,26.10
2018-08-18T16:03:51.990Z,26.10
2018-08-18T16:06:20.436Z,26.00
2018-08-18T16:08:48.985Z,26.00
2018-08-18T16:11:17.369Z,25.90
2018-08-18T16:13:45.845Z,25.80
2018-08-18T16:16:14.483Z,25.80
2018-08-18T16:18:43.076Z,25.80
2018-08-18T16:21:15.727Z,25.80
2018-08-18T16:23:44.392Z,25.80
2018-08-18T16:26:13.398Z,25.70
2018-08-18T16:28:42.296Z,25.60
2018-08-18T16:31:11.128Z,25.50
2018-08-18T16:33:39.668Z,25.30
2018-08-18T16:36:08.411Z,25.40
2018-08-18T16:38:36.870Z,25.30
2018-08-18T16:41:05.403Z,25.30
2018-08-18T16:43:35.486Z,25.20
2018-08-18T16:46:23.656Z,25.20
2018-08-18T16:48:52.687Z,25.20
2018-08-18T16:51:21.567Z,25.20
2018-08-18T16:53:50.157Z,25.20
2018-08-18T16:56:28.205Z,25.20
2018-08-18T16:58:58.076Z,25.30
2018-08-18T17:01:26.694Z,25.30
2018-08-18T17:03:55.536Z,25.30
2018-08-18T17:06:24.025Z,25.20
2018-08-18T17:08:52.676Z,25.20
2018-08-18T17:11:21.080Z,25.20
2018-08-18T17:13:49.667Z,25.10
2018-08-18T17:16:18.460Z,25.10
2018-08-18T17:18:46.846Z,25.00
2018-08-18T17:21:15.588Z,25.00
2018-08-18T17:23:44.019Z,24.90
2018-08-18T17:26:12.460Z,24.90
2018-08-18T17:28:40.876Z,24.80
2018-08-18T17:31:09.391Z,24.70
2018-08-18T17:33:37.837Z,24.70
2018-08-18T17:36:06.309Z,24.70
2018-08-18T17:38:34.786Z,24.70
2018-08-18T17:41:03.255Z,24.70
2018-08-18T17:43:31.667Z,24.70
2018-08-18T17:46:03.486Z,24.70
2018-08-18T17:48:40.264Z,24.70
2018-08-18T17:51:08.832Z,24.70
2018-08-18T17:53:40.344Z,24.60
2018-08-18T17:56:08.772Z,24.60
2018-08-18T17:58:37.248Z,24.70
2018-08-18T18:01:07.680Z,24.70
2018-08-18T18:03:36.349Z,24.50
2018-08-18T18:06:04.746Z,24.40
2018-08-18T18:08:33.241Z,24.40
2018-08-18T18:11:01.692Z,24.30
2018-08-18T18:13:30.512Z,24.20
2018-08-18T18:15:59.076Z,24.20
2018-08-18T18:18:33.196Z,24.20
2018-08-18T18:21:01.701Z,24.10
2018-08-18T18:23:30.244Z,24.00
2018-08-18T18:25:58.713Z,24.10
2018-08-18T18:28:27.181Z,24.00
2018-08-18T18:30:55.621Z,24.00
2018-08-18T18:33:24.048Z,24.00
2018-08-18T18:35:52.493Z,24.00
2018-08-18T18:38:20.915Z,24.00
2018-08-18T18:40:49.347Z,24.00
2018-08-18T18:43:17.759Z,24.00
2018-08-18T18:45:46.288Z,23.90
2018-08-18T18:48:15.778Z,23.80
2018-08-18T18:50:46.904Z,23.70
2018-08-18T18:53:15.405Z,23.70
2018-08-18T18:55:49.568Z,23.60
2018-08-18T18:58:18.008Z,23.50
2018-08-18T19:00:50.080Z,23.50
2018-08-18T19:03:18.587Z,23.50
2018-08-18T19:05:48.181Z,23.50
2018-08-18T19:08:18.041Z,23.40
2018-08-18T19:10:46.857Z,23.40
2018-08-18T19:13:15.285Z,23.40
2018-08-18T19:15:43.703Z,23.40
2018-08-18T19:18:12.989Z,23.40
2018-08-18T19:20:41.458Z,23.50
2018-08-18T19:23:15.087Z,23.60
2018-08-18T19:25:45.937Z,23.60
2018-08-18T19:28:16.545Z,23.60
2018-08-18T19:30:45.103Z,23.60
2018-08-18T19:33:14.640Z,23.60
2018-08-18T19:35:46.241Z,23.70
2018-08-18T19:38:15.409Z,23.70
2018-08-18T19:40:45.127Z,23.80
2018-08-18T19:43:15.842Z,23.60
2018-08-18T19:45:44.386Z,23.50
2018-08-18T19:48:15.237Z,23.40
2018-08-18T19:50:50.507Z,23.30
2018-08-18T19:53:21.117Z,23.30
2018-08-18T19:55:50.013Z,23.20
2018-08-18T19:58:18.507Z,23.30
2018-08-18T20:00:46.895Z,23.30
2018-08-18T20:03:16.541Z,23.40
2018-08-18T20:05:45.067Z,23.30
2018-08-18T20:08:24.709Z,23.20
2018-08-18T20:10:58.390Z,23.10
2018-08-18T20:13:28.127Z,23.00
2018-08-18T20:15:58.187Z,22.80
2018-08-18T20:18:26.656Z,22.60
2018-08-18T20:20:56.844Z,22.50
2018-08-18T20:23:25.409Z,22.50
2018-08-18T20:25:54.532Z,22.40
2018-08-18T20:28:22.975Z,22.30
2018-08-18T20:30:51.630Z,22.20
2018-08-18T20:33:20.039Z,22.10
2018-08-18T20:35:48.563Z,21.90
2018-08-18T20:38:16.964Z,21.80
2018-08-18T20:40:45.389Z,21.70
2018-08-18T20:43:13.844Z,21.60
2018-08-18T20:45:48.394Z,21.60
2018-08-18T20:48:19.702Z,21.60
2018-08-18T20:50:48.091Z,21.70
2018-08-18T20:53:17.596Z,21.70
2018-08-18T20:56:02.892Z,21.90
2018-08-18T20:58:34.152Z,21.90
2018-08-18T21:01:02.912Z,22.00
2018-08-18T21:03:44.616Z,22.00
2018-08-18T21:06:14.136Z,22.00
2018-08-18T21:08:42.548Z,22.00
2018-08-18T21:11:11.060Z,21.90
2018-08-18T21:13:39.768Z,21.90
2018-08-18T21:16:08.644Z,22.00
2018-08-18T21:18:37.102Z,22.00
2018-08-18T21:21:24.958Z,22.00
2018-08-18T21:23:53.773Z,21.90
2018-08-18T21:26:22.261Z,21.90
2018-08-18T21:28:53.264Z,21.90
2018-08-18T21:31:27.492Z,21.90
2018-08-18T21:33:57.156Z,21.80
2018-08-18T21:36:25.663Z,21.80
2018-08-18T21:38:54.069Z,21.70
2018-08-18T21:41:22.510Z,21.70
2018-08-18T21:43:51.222Z,21.60
2018-08-18T21:46:20.247Z,21.40
2018-08-18T21:48:50.845Z,21.20
2018-08-18T21:51:22.743Z,21.00
2018-08-18T21:53:51.211Z,20.90
2018-08-18T21:56:20.981Z,20.90
2018-08-18T21:58:49.771Z,21.10
2018-08-18T22:01:24.703Z,21.30
2018-08-18T22:03:55.465Z,21.20
2018-08-18T22:06:24.023Z,21.10
2018-08-18T22:08:57.283Z,21.10
2018-08-18T22:11:26.559Z,21.10
2018-08-18T22:13:55.237Z,21.10
2018-08-18T22:16:24.100Z,21.00
2018-08-18T22:19:02.819Z,21.10
2018-08-18T22:21:32.762Z,21.00
2018-08-18T22:24:03.279Z,20.90
2018-08-18T22:26:31.807Z,20.90
2018-08-18T22:29:03.974Z,20.90
2018-08-18T22:31:33.840Z,20.80
2018-08-18T22:34:03.415Z,20.80
2018-08-18T22:36:33.117Z,20.70
2018-08-18T22:39:02.005Z,20.70
2018-08-18T22:41:30.440Z,20.70
2018-08-18T22:43:59.208Z,20.60
2018-08-18T22:46:29.443Z,20.60
2018-08-18T22:48:57.931Z,20.50
2018-08-18T22:51:26.349Z,20.50
2018-08-18T22:53:55.587Z,20.50
2018-08-18T22:56:28.260Z,20.40
2018-08-18T22:59:02.144Z,20.40
2018-08-18T23:01:31.134Z,20.20
2018-08-18T23:03:59.527Z,20.20
2018-08-18T23:06:29.323Z,20.10
2018-08-18T23:08:57.715Z,20.10
2018-08-18T23:11:26.257Z,20.10
2018-08-18T23:13:54.687Z,20.10
2018-08-18T23:16:23.124Z,20.10
2018-08-18T23:18:51.540Z,20.10
2018-08-18T23:21:25.562Z,20.00
2018-08-18T23:23:53.972Z,20.00
2018-08-18T23:26:22.422Z,19.90
2018-08-18T23:28:50.844Z,20.00
2018-08-18T23:31:19.368Z,19.90
2018-08-18T23:33:47.795Z,19.90
2018-08-18T23:36:16.194Z,20.00
2018-08-18T23:38:57.354Z,20.00
2018-08-18T23:41:25.878Z,19.90
2018-08-18T23:43:54.264Z,19.90
2018-08-18T23:46:22.652Z,19.90
2018-08-18T23:48:51.118Z,19.80
2018-08-18T23:51:26.120Z,19.80
2018-08-18T23:53:54.544Z,19.70
2018-08-18T23:56:22.961Z,19.70
2018-08-18T23:58:51.477Z,19.70
